createdAt,value
2023-02-12T00:01:35.162Z,100.00
2023-02-12T00:04:03.410Z,100.00
2023-02-12T00:06:31.784Z,100.00
2023-02-12T00:09:02.312Z,100.00
2023-02-12T00:11:31.720Z,100.00
2023-02-12T00:14:00.244Z,100.00
2023-02-12T00:16:29.829Z,100.00
2023-02-12T00:19:01.076Z,100.00
2023-02-12T00:21:29.509Z,100.00
2023-02-12T00:23:57.986Z,100.00
2023-02-12T00:26:26.772Z,100.00
2023-02-12T00:28:55.772Z,100.00
2023-02-12T00:31:26.446Z,100.00
2023-02-12T00:33:54.949Z,100.00
2023-02-12T00:36:26.147Z,100.00
2023-02-12T00:38:55.718Z,100.00
2023-02-12T00:41:25.530Z,100.00
2023-02-12T00:43:54.123Z,100.00
2023-02-12T00:46:22.992Z,100.00
2023-02-12T00:48:51.417Z,100.00
2023-02-12T00:51:19.775Z,100.00
2023-02-12T00:53:49.544Z,100.00
2023-02-12T00:56:17.846Z,100.00
2023-02-12T00:58:46.164Z,100.00
2023-02-12T01:01:14.646Z,100.00
2023-02-12T01:03:42.999Z,100.00
2023-02-12T01:06:11.233Z,100.00
2023-02-12T01:08:39.531Z,100.00
2023-02-12T01:11:09.260Z,100.00
2023-02-12T01:13:38.120Z,98.57
2023-02-12T01:16:09.584Z,100.00
2023-02-12T01:18:38.389Z,100.00
2023-02-12T01:21:11.187Z,98.38
2023-02-12T01:23:39.434Z,98.40
2023-02-12T01:26:10.962Z,93.03
2023-02-12T01:28:39.539Z,95.41
2023-02-12T01:31:12.424Z,94.44
2023-02-12T01:33:41.002Z,96.09
2023-02-12T01:36:10.758Z,100.00
2023-02-12T01:38:39.160Z,100.00
2023-02-12T01:41:10.288Z,100.00
2023-02-12T01:43:41.889Z,100.00
2023-02-12T01:46:11.966Z,94.43
2023-02-12T01:48:42.413Z,97.32
2023-02-12T01:51:13.244Z,96.48
2023-02-12T01:53:43.539Z,95.27
2023-02-12T01:56:15.756Z,93.36
2023-02-12T01:58:45.796Z,97.68
2023-02-12T02:01:18.313Z,94.10
2023-02-12T02:03:48.379Z,95.02
2023-02-12T02:06:18.954Z,95.87
2023-02-12T02:08:48.220Z,93.33
2023-02-12T02:11:31.645Z,93.03
2023-02-12T02:14:17.503Z,94.85
2023-02-12T02:16:49.124Z,99.13
2023-02-12T02:19:30.081Z,95.86
2023-02-12T02:22:16.336Z,95.85
2023-02-12T02:25:17.617Z,96.06
2023-02-12T02:27:55.726Z,96.25
2023-02-12T02:30:34.165Z,95.56
2023-02-12T02:33:28.804Z,93.36
2023-02-12T02:36:05.269Z,95.70
2023-02-12T02:38:36.255Z,94.77
2023-02-12T02:41:07.043Z,96.26
2023-02-12T02:43:37.508Z,95.93
2023-02-12T02:46:11.947Z,97.67
2023-02-12T02:48:43.640Z,99.23
2023-02-12T02:51:14.842Z,97.68
2023-02-12T02:53:46.892Z,97.25
2023-02-12T02:56:17.592Z,97.00
2023-02-12T02:58:49.292Z,100.00
2023-02-12T03:01:22.109Z,97.36
2023-02-12T03:03:54.979Z,99.45
2023-02-12T03:06:28.307Z,96.17
2023-02-12T03:08:58.544Z,98.45
2023-02-12T03:11:29.549Z,97.11
2023-02-12T03:14:01.545Z,100.00
2023-02-12T03:16:34.219Z,100.00
2023-02-12T03:19:07.402Z,95.76
2023-02-12T03:21:38.841Z,99.84
2023-02-12T03:24:12.972Z,93.88
2023-02-12T03:26:45.412Z,92.41
2023-02-12T03:29:13.898Z,92.76
2023-02-12T03:31:53.901Z,90.39
2023-02-12T03:34:27.565Z,90.50
2023-02-12T03:37:00.425Z,87.89
2023-02-12T03:39:31.654Z,92.38
2023-02-12T03:42:04.984Z,88.40
2023-02-12T03:44:36.858Z,90.22
2023-02-12T03:47:13.092Z,83.79
2023-02-12T03:49:45.522Z,89.65
2023-02-12T03:52:13.895Z,87.63
2023-02-12T03:54:42.463Z,90.26
2023-02-12T03:57:13.709Z,94.87
2023-02-12T03:59:42.504Z,92.56
2023-02-12T04:02:12.385Z,90.67
2023-02-12T04:04:41.067Z,90.70
2023-02-12T04:07:09.659Z,93.53
2023-02-12T04:09:38.008Z,95.40
2023-02-12T04:12:24.472Z,96.52
2023-02-12T04:14:56.641Z,92.11
2023-02-12T04:17:32.807Z,93.47
2023-02-12T04:20:09.894Z,91.50
2023-02-12T04:22:47.772Z,90.25
2023-02-12T04:25:23.712Z,91.03
2023-02-12T04:27:59.113Z,89.34
2023-02-12T04:30:30.831Z,87.95
2023-02-12T04:33:02.995Z,88.31
2023-02-12T04:35:34.161Z,90.01
2023-02-12T04:38:08.978Z,85.79
2023-02-12T04:40:37.601Z,90.38
2023-02-12T04:43:05.876Z,88.40
2023-02-12T04:45:35.954Z,87.81
2023-02-12T04:48:09.115Z,87.90
2023-02-12T04:50:42.094Z,89.02
2023-02-12T04:53:11.032Z,84.41
2023-02-12T04:55:39.590Z,87.60
2023-02-12T04:58:08.469Z,89.28
2023-02-12T05:00:37.138Z,90.11
2023-02-12T05:03:06.957Z,90.27
2023-02-12T05:05:35.395Z,100.00
2023-02-12T05:08:03.711Z,100.00
2023-02-12T05:10:32.148Z,100.00
2023-02-12T05:13:00.726Z,100.00
2023-02-12T05:15:29.086Z,95.35
2023-02-12T05:17:57.505Z,96.57
2023-02-12T05:20:27.926Z,95.77
2023-02-12T05:22:56.260Z,96.36
2023-02-12T05:25:24.609Z,99.45
2023-02-12T05:27:53.130Z,97.19
2023-02-12T05:30:21.465Z,96.56
2023-02-12T05:32:49.835Z,96.97
2023-02-12T05:35:18.366Z,94.76
2023-02-12T05:37:48.071Z,95.23
2023-02-12T05:40:17.197Z,93.86
2023-02-12T05:42:45.686Z,92.89
2023-02-12T05:45:13.961Z,96.35
2023-02-12T05:47:42.228Z,96.76
2023-02-12T05:50:11.320Z,95.34
2023-02-12T05:52:40.452Z,96.30
2023-02-12T05:55:10.516Z,93.54
2023-02-12T05:57:39.021Z,95.15
2023-02-12T06:00:09.234Z,93.93
2023-02-12T06:02:37.594Z,92.93
2023-02-12T06:05:06.651Z,92.78
2023-02-12T06:07:35.018Z,92.66
2023-02-12T06:10:03.293Z,92.16
2023-02-12T06:12:33.188Z,92.02
2023-02-12T06:15:01.595Z,93.35
2023-02-12T06:17:32.740Z,94.56
2023-02-12T06:20:01.013Z,95.09
2023-02-12T06:22:29.405Z,94.38
2023-02-12T06:24:58.328Z,94.48
2023-02-12T06:27:27.046Z,92.71
2023-02-12T06:29:56.685Z,90.53
2023-02-12T06:32:25.092Z,90.78
2023-02-12T06:34:53.304Z,90.19
2023-02-12T06:37:21.907Z,88.43
2023-02-12T06:39:50.232Z,88.65
2023-02-12T06:42:18.485Z,90.53
2023-02-12T06:44:47.855Z,90.17
2023-02-12T06:47:17.646Z,88.96
2023-02-12T06:49:45.918Z,88.04
2023-02-12T06:52:14.359Z,89.47
2023-02-12T06:54:42.947Z,87.98
2023-02-12T06:57:11.499Z,87.16
2023-02-12T06:59:40.140Z,86.60
2023-02-12T07:02:08.849Z,85.51
2023-02-12T07:04:39.326Z,84.15
2023-02-12T07:07:07.691Z,84.04
2023-02-12T07:09:36.025Z,83.43
2023-02-12T07:12:04.701Z,83.45
2023-02-12T07:14:33.332Z,82.18
2023-02-12T07:17:03.960Z,81.10
2023-02-12T07:19:32.308Z,80.93
2023-02-12T07:22:01.965Z,80.33
2023-02-12T07:24:30.517Z,84.69
2023-02-12T07:26:58.920Z,86.70
2023-02-12T07:29:27.820Z,87.74
2023-02-12T07:31:56.524Z,87.52
2023-02-12T07:34:24.831Z,87.49
2023-02-12T07:36:53.125Z,86.37
2023-02-12T07:39:23.150Z,87.31
2023-02-12T07:41:51.467Z,86.85
2023-02-12T07:44:19.766Z,87.62
2023-02-12T07:46:49.300Z,84.19
2023-02-12T07:49:19.246Z,82.32
2023-02-12T07:51:47.774Z,83.74
2023-02-12T07:54:16.462Z,84.02
2023-02-12T07:56:47.697Z,83.95
2023-02-12T07:59:17.916Z,80.84
2023-02-12T08:01:49.000Z,80.62
2023-02-12T08:04:19.150Z,81.40
2023-02-12T08:06:49.258Z,81.00
2023-02-12T08:09:19.365Z,80.71
2023-02-12T08:11:49.108Z,80.79
2023-02-12T08:14:25.035Z,79.41
2023-02-12T08:16:53.698Z,80.90
2023-02-12T08:19:26.141Z,81.30
2023-02-12T08:21:55.969Z,80.91
2023-02-12T08:24:24.787Z,77.57
2023-02-12T08:26:54.648Z,77.31
2023-02-12T08:29:24.621Z,76.98
2023-02-12T08:31:58.221Z,75.91
2023-02-12T08:34:29.002Z,75.13
2023-02-12T08:36:58.824Z,75.79
2023-02-12T08:39:28.805Z,75.83
2023-02-12T08:41:59.581Z,75.07
2023-02-12T08:44:27.972Z,77.03
2023-02-12T08:46:56.886Z,76.57
2023-02-12T08:49:26.655Z,76.65
2023-02-12T08:51:56.839Z,76.96
2023-02-12T08:54:26.537Z,77.43
2023-02-12T08:56:56.925Z,77.73
2023-02-12T08:59:26.714Z,76.53
2023-02-12T09:01:58.179Z,72.89
2023-02-12T09:04:28.321Z,74.21
2023-02-12T09:06:56.857Z,74.07
2023-02-12T09:09:25.351Z,76.75
2023-02-12T09:11:53.640Z,75.83
2023-02-12T09:14:24.468Z,74.13
2023-02-12T09:16:55.222Z,72.44
2023-02-12T09:19:24.139Z,72.13
2023-02-12T09:21:55.857Z,70.91
2023-02-12T09:24:25.033Z,73.89
2023-02-12T09:26:53.536Z,72.85
2023-02-12T09:29:22.035Z,73.79
2023-02-12T09:31:50.726Z,73.84
2023-02-12T09:34:21.205Z,71.59
2023-02-12T09:36:50.193Z,69.00
2023-02-12T09:39:18.467Z,75.17
2023-02-12T09:42:10.989Z,73.18
2023-02-12T09:44:44.023Z,72.45
2023-02-12T09:47:17.400Z,72.10
2023-02-12T09:49:55.022Z,70.97
2023-02-12T09:52:27.616Z,75.58
2023-02-12T09:54:56.525Z,73.04
2023-02-12T09:57:29.663Z,72.38
2023-02-12T10:00:00.514Z,68.13
2023-02-12T10:02:29.180Z,69.37
2023-02-12T10:05:02.340Z,90.84
2023-02-12T10:07:50.582Z,72.56
2023-02-12T10:10:35.936Z,73.60
2023-02-12T10:13:06.823Z,68.51
2023-02-12T10:15:39.672Z,73.26
2023-02-12T10:18:21.795Z,69.65
2023-02-12T10:20:59.123Z,72.94
2023-02-12T10:23:59.750Z,69.72
2023-02-12T10:26:31.684Z,78.38
2023-02-12T10:29:02.885Z,73.53
2023-02-12T10:31:33.513Z,71.94
2023-02-12T10:34:02.071Z,78.45
2023-02-12T10:36:41.376Z,71.18
2023-02-12T10:39:15.786Z,70.86
2023-02-12T10:41:48.281Z,75.59
2023-02-12T10:44:16.620Z,66.58
2023-02-12T10:46:44.888Z,70.60
2023-02-12T10:49:15.129Z,74.25
2023-02-12T10:51:58.116Z,76.09
2023-02-12T10:54:35.290Z,71.55
2023-02-12T10:57:19.228Z,71.77
2023-02-12T10:59:48.598Z,68.73
2023-02-12T11:02:22.763Z,71.02
2023-02-12T11:04:51.496Z,71.42
2023-02-12T11:07:22.592Z,73.29
2023-02-12T11:09:53.873Z,72.15
2023-02-12T11:12:28.133Z,71.32
2023-02-12T11:14:57.799Z,63.96
2023-02-12T11:17:29.863Z,69.67
2023-02-12T11:20:10.348Z,72.05
2023-02-12T11:22:52.408Z,72.97
2023-02-12T11:25:22.005Z,64.59
2023-02-12T11:28:12.052Z,69.34
2023-02-12T11:30:50.932Z,66.61
2023-02-12T11:33:25.972Z,69.66
2023-02-12T11:35:56.599Z,69.39
2023-02-12T11:38:29.887Z,69.98
2023-02-12T11:41:01.695Z,69.82
2023-02-12T11:43:31.622Z,71.80
2023-02-12T11:46:00.876Z,71.49
2023-02-12T11:48:32.110Z,71.96
2023-02-12T11:51:02.877Z,71.32
2023-02-12T11:53:36.165Z,70.93
2023-02-12T11:56:05.172Z,71.19
2023-02-12T11:58:33.563Z,71.15
2023-02-12T12:01:10.515Z,76.00
2023-02-12T12:03:44.633Z,71.93
2023-02-12T12:06:24.489Z,74.28
2023-02-12T12:08:59.677Z,69.51
2023-02-12T12:11:32.859Z,71.21
2023-02-12T12:14:04.099Z,69.02
2023-02-12T12:16:55.340Z,69.64
2023-02-12T12:19:43.308Z,73.68
2023-02-12T12:22:17.289Z,72.31
2023-02-12T12:24:51.361Z,76.40
2023-02-12T12:27:42.939Z,74.61
2023-02-12T12:30:18.888Z,73.22
2023-02-12T12:32:49.417Z,77.22
2023-02-12T12:35:20.629Z,69.70
2023-02-12T12:37:51.711Z,70.28
2023-02-12T12:40:30.445Z,71.47
2023-02-12T12:43:14.334Z,68.83
2023-02-12T12:46:11.729Z,76.57
2023-02-12T12:48:53.537Z,72.21
2023-02-12T12:51:32.144Z,68.06
2023-02-12T12:54:24.429Z,69.44
2023-02-12T12:57:02.995Z,77.41
2023-02-12T12:59:55.192Z,69.81
2023-02-12T13:03:00.554Z,72.72
2023-02-12T13:05:43.953Z,70.67
2023-02-12T13:08:19.741Z,73.30
2023-02-12T13:10:51.073Z,72.98
2023-02-12T13:13:27.724Z,72.90
2023-02-12T13:16:04.413Z,74.64
2023-02-12T13:18:42.856Z,73.02
2023-02-12T13:21:17.618Z,75.60
2023-02-12T13:23:51.561Z,84.54
2023-02-12T13:26:30.675Z,79.36
2023-02-12T13:29:03.586Z,75.15
2023-02-12T13:31:34.024Z,79.11
2023-02-12T13:34:05.254Z,71.83
2023-02-12T13:36:34.220Z,71.79
2023-02-12T13:39:08.475Z,74.00
2023-02-12T13:41:37.790Z,72.40
2023-02-12T13:44:15.496Z,80.51
2023-02-12T13:46:52.192Z,76.95
2023-02-12T13:49:28.176Z,73.34
2023-02-12T13:52:00.696Z,71.96
2023-02-12T13:54:43.208Z,71.93
2023-02-12T13:57:15.284Z,74.26
2023-02-12T13:59:50.217Z,76.87
2023-02-12T14:02:42.936Z,72.25
2023-02-12T14:05:21.343Z,73.68
2023-02-12T14:07:51.158Z,75.83
2023-02-12T14:10:25.554Z,73.58
2023-02-12T14:12:55.748Z,73.02
2023-02-12T14:15:34.466Z,76.76
2023-02-12T14:18:22.393Z,77.13
2023-02-12T14:21:37.799Z,73.74
2023-02-12T14:24:43.279Z,76.53
2023-02-12T14:27:23.848Z,76.47
2023-02-12T14:30:27.634Z,76.00
2023-02-12T14:33:11.393Z,74.26
2023-02-12T14:35:40.744Z,78.56
2023-02-12T14:38:47.503Z,78.97
2023-02-12T14:41:37.907Z,79.10
2023-02-12T14:44:43.312Z,77.96
2023-02-12T14:47:54.066Z,78.98
2023-02-12T14:50:28.243Z,76.71
2023-02-12T14:53:01.132Z,75.75
2023-02-12T14:55:34.408Z,77.84
2023-02-12T14:58:03.190Z,77.33
2023-02-12T15:00:35.475Z,81.02
2023-02-12T15:03:15.492Z,78.97
2023-02-12T15:05:49.380Z,81.65
2023-02-12T15:08:24.193Z,73.44
2023-02-12T15:10:56.139Z,76.84
2023-02-12T15:13:29.700Z,78.53
2023-02-12T15:16:03.322Z,77.95
2023-02-12T15:18:43.822Z,79.12
2023-02-12T15:21:21.039Z,79.60
2023-02-12T15:23:50.748Z,81.31
2023-02-12T15:26:22.101Z,82.17
2023-02-12T15:28:52.580Z,80.12
2023-02-12T15:31:22.809Z,80.40
2023-02-12T15:33:52.596Z,80.24
2023-02-12T15:36:27.352Z,81.34
2023-02-12T15:38:57.733Z,80.97
2023-02-12T15:41:29.272Z,80.91
2023-02-12T15:43:58.213Z,81.09
2023-02-12T15:46:27.238Z,80.61
2023-02-12T15:48:56.599Z,80.66
2023-02-12T15:51:30.350Z,79.97
2023-02-12T15:54:00.266Z,79.55
2023-02-12T15:56:29.401Z,81.28
2023-02-12T15:58:58.715Z,79.74
2023-02-12T16:01:29.413Z,80.52
2023-02-12T16:03:59.443Z,80.17
2023-02-12T16:06:30.863Z,81.20
2023-02-12T16:09:00.972Z,81.94
2023-02-12T16:11:29.832Z,79.95
2023-02-12T16:14:00.765Z,80.27
2023-02-12T16:16:31.379Z,81.17
2023-02-12T16:19:18.672Z,80.25
2023-02-12T16:21:49.593Z,80.89
2023-02-12T16:24:30.295Z,100.00
2023-02-12T16:26:59.832Z,100.00
2023-02-12T16:29:28.488Z,100.00
2023-02-12T16:31:59.533Z,100.00
2023-02-12T16:34:36.771Z,100.00
2023-02-12T16:37:46.748Z,100.00
2023-02-12T16:40:39.507Z,100.00
2023-02-12T16:43:27.044Z,100.00
2023-02-12T16:46:08.039Z,100.00
2023-02-12T16:48:41.943Z,100.00
2023-02-12T16:51:23.247Z,100.00
2023-02-12T16:53:54.241Z,100.00
2023-02-12T16:56:23.606Z,100.00
2023-02-12T16:58:55.329Z,100.00
2023-02-12T17:01:26.355Z,100.00
2023-02-12T17:03:55.153Z,100.00
2023-02-12T17:06:25.816Z,100.00
2023-02-12T17:08:55.568Z,100.00
2023-02-12T17:11:24.611Z,100.00
2023-02-12T17:13:54.548Z,100.00
2023-02-12T17:16:30.745Z,100.00
2023-02-12T17:19:02.931Z,100.00
2023-02-12T17:21:37.943Z,100.00
2023-02-12T17:24:09.899Z,100.00
2023-02-12T17:26:38.199Z,100.00
2023-02-12T17:29:06.546Z,100.00
2023-02-12T17:31:35.517Z,100.00
2023-02-12T17:34:04.008Z,100.00
2023-02-12T17:36:32.286Z,100.00
2023-02-12T17:39:01.231Z,100.00
2023-02-12T17:41:30.931Z,100.00
2023-02-12T17:43:59.385Z,100.00
2023-02-12T17:46:29.092Z,100.00
2023-02-12T17:48:57.839Z,100.00
2023-02-12T17:51:27.359Z,100.00
2023-02-12T17:53:56.179Z,100.00
2023-02-12T17:56:26.100Z,100.00
2023-02-12T17:58:56.094Z,100.00
2023-02-12T18:01:25.134Z,100.00
2023-02-12T18:03:55.972Z,100.00
2023-02-12T18:06:26.588Z,100.00
2023-02-12T18:08:55.573Z,81.03
2023-02-12T18:11:24.614Z,86.97
2023-02-12T18:13:55.944Z,87.72
2023-02-12T18:16:26.200Z,87.31
2023-02-12T18:18:54.577Z,87.14
2023-02-12T18:21:23.028Z,87.61
2023-02-12T18:23:51.483Z,87.08
2023-02-12T18:26:20.629Z,86.83
2023-02-12T18:28:49.103Z,87.78
2023-02-12T18:31:20.569Z,87.61
2023-02-12T18:33:49.209Z,87.96
2023-02-12T18:36:19.365Z,88.68
2023-02-12T18:38:49.207Z,88.13
2023-02-12T18:41:19.299Z,88.23
2023-02-12T18:43:49.438Z,88.58
2023-02-12T18:46:20.804Z,87.32
2023-02-12T18:48:49.465Z,87.50
2023-02-12T18:51:19.602Z,87.36
2023-02-12T18:53:48.184Z,88.24
2023-02-12T18:56:16.865Z,87.56
2023-02-12T18:58:45.586Z,88.10
2023-02-12T19:01:14.672Z,87.95
2023-02-12T19:03:44.858Z,88.09
2023-02-12T19:06:13.651Z,87.83
2023-02-12T19:08:42.240Z,87.84
2023-02-12T19:11:12.922Z,87.73
2023-02-12T19:13:42.984Z,87.48
2023-02-12T19:16:16.897Z,87.88
2023-02-12T19:18:49.650Z,88.29
2023-02-12T19:21:18.967Z,88.29
2023-02-12T19:23:47.359Z,87.73
2023-02-12T19:26:17.265Z,86.91
2023-02-12T19:28:46.195Z,87.04
2023-02-12T19:31:16.125Z,87.31
2023-02-12T19:33:46.584Z,86.32
2023-02-12T19:36:17.997Z,87.33
2023-02-12T19:38:46.984Z,87.74
2023-02-12T19:41:17.917Z,86.32
2023-02-12T19:43:46.496Z,87.38
2023-02-12T19:46:16.854Z,87.95
2023-02-12T19:48:48.130Z,87.60
2023-02-12T19:51:17.561Z,87.18
2023-02-12T19:53:46.001Z,86.93
2023-02-12T19:56:14.658Z,87.83
2023-02-12T19:58:44.470Z,87.49
2023-02-12T20:01:14.842Z,87.57
2023-02-12T20:03:43.342Z,87.34
2023-02-12T20:06:15.592Z,86.58
2023-02-12T20:08:44.373Z,86.61
2023-02-12T20:11:14.506Z,86.91
2023-02-12T20:13:43.079Z,87.27
2023-02-12T20:16:16.024Z,87.64
2023-02-12T20:18:44.583Z,86.54
2023-02-12T20:21:15.840Z,87.38
2023-02-12T20:23:44.151Z,86.84
2023-02-12T20:26:14.209Z,87.59
2023-02-12T20:28:43.064Z,86.82
2023-02-12T20:31:14.901Z,87.34
2023-02-12T20:33:43.556Z,87.59
2023-02-12T20:36:14.111Z,87.21
2023-02-12T20:38:43.600Z,87.13
2023-02-12T20:41:13.197Z,86.84
2023-02-12T20:43:41.772Z,87.04
2023-02-12T20:46:11.288Z,87.27
2023-02-12T20:48:39.792Z,87.27
2023-02-12T20:51:09.878Z,87.10
2023-02-12T20:53:40.037Z,86.61
2023-02-12T20:56:10.708Z,88.12
2023-02-12T20:58:41.186Z,87.33
2023-02-12T21:01:11.534Z,88.15
2023-02-12T21:03:41.153Z,88.49
2023-02-12T21:06:09.583Z,89.20
2023-02-12T21:08:39.802Z,88.50
2023-02-12T21:11:14.794Z,88.28
2023-02-12T21:13:53.826Z,88.25
2023-02-12T21:16:32.259Z,88.56
2023-02-12T21:19:00.906Z,88.21
2023-02-12T21:21:31.074Z,88.75
2023-02-12T21:24:01.866Z,88.49
2023-02-12T21:26:31.781Z,88.41
2023-02-12T21:29:01.888Z,88.98
2023-02-12T21:31:31.761Z,89.50
2023-02-12T21:34:02.072Z,88.73
2023-02-12T21:36:32.586Z,88.66
2023-02-12T21:39:03.000Z,88.67
2023-02-12T21:41:34.587Z,89.03
2023-02-12T21:44:05.018Z,88.80
2023-02-12T21:46:33.901Z,89.75
2023-02-12T21:49:02.435Z,89.54
2023-02-12T21:51:33.177Z,89.29
2023-02-12T21:54:04.917Z,89.14
2023-02-12T21:56:33.355Z,89.48
2023-02-12T21:59:01.799Z,88.88
2023-02-12T22:01:32.380Z,89.16
2023-02-12T22:04:03.471Z,89.52
2023-02-12T22:06:32.077Z,88.90
2023-02-12T22:09:06.686Z,89.71
2023-02-12T22:11:35.044Z,89.05
2023-02-12T22:14:04.520Z,89.19
2023-02-12T22:16:33.032Z,89.30
2023-02-12T22:19:02.648Z,89.07
2023-02-12T22:21:32.852Z,88.38
2023-02-12T22:24:03.842Z,89.58
2023-02-12T22:26:33.636Z,90.39
2023-02-12T22:29:04.076Z,91.30
2023-02-12T22:31:35.105Z,91.13
2023-02-12T22:34:05.824Z,89.42
2023-02-12T22:36:37.187Z,90.38
2023-02-12T22:39:07.399Z,89.82
2023-02-12T22:41:35.804Z,90.37
2023-02-12T22:44:06.339Z,91.03
2023-02-12T22:46:36.256Z,91.22
2023-02-12T22:49:04.570Z,90.48
2023-02-12T22:51:34.674Z,89.55
2023-02-12T22:54:03.037Z,90.07
2023-02-12T22:56:32.817Z,90.85
2023-02-12T22:59:02.740Z,91.94
2023-02-12T23:01:31.730Z,92.20
2023-02-12T23:04:00.434Z,92.38
2023-02-12T23:06:30.719Z,91.41
2023-02-12T23:09:01.249Z,91.07
2023-02-12T23:11:31.520Z,91.35
2023-02-12T23:14:01.473Z,91.84
2023-02-12T23:16:29.970Z,92.14
2023-02-12T23:18:58.724Z,92.11
2023-02-12T23:21:27.736Z,90.94
2023-02-12T23:23:56.282Z,90.44
2023-02-12T23:26:24.955Z,90.39
2023-02-12T23:28:53.264Z,91.27
2023-02-12T23:31:23.287Z,91.51
2023-02-12T23:33:53.294Z,91.68
2023-02-12T23:36:21.613Z,91.71
2023-02-12T23:38:50.586Z,92.50
2023-02-12T23:41:18.976Z,92.97
2023-02-12T23:43:48.868Z,93.88
2023-02-12T23:46:18.997Z,94.11
2023-02-12T23:48:48.702Z,92.02
2023-02-12T23:51:17.013Z,92.83
2023-02-12T23:53:45.332Z,92.59
2023-02-12T23:56:13.568Z,92.91
2023-02-12T23:58:41.867Z,92.09
